sensor_id;sensor_type;location;lat;lon;timestamp;P1;durP1;ratioP1;P2;durP2;ratioP2
78489;SDS011;67776;52.012;4.736;2023-08-07T00:02:22;16.10;;;2.60;;
78489;SDS011;67776;52.012;4.736;2023-08-07T00:04:47;12.20;;;1.70;;
78489;SDS011;67776;52.012;4.736;2023-08-07T00:07:13;8.17;;;1.50;;
78489;SDS011;67776;52.012;4.736;2023-08-07T00:09:38;9.30;;;2.03;;
78489;SDS011;67776;52.012;4.736;2023-08-07T00:12:04;11.57;;;2.13;;
78489;SDS011;67776;52.012;4.736;2023-08-07T00:14:29;13.20;;;2.05;;
78489;SDS011;67776;52.012;4.736;2023-08-07T00:16:55;15.40;;;1.87;;
78489;SDS011;67776;52.012;4.736;2023-08-07T00:19:20;10.83;;;2.07;;
78489;SDS011;67776;52.012;4.736;2023-08-07T00:21:45;11.63;;;2.13;;
78489;SDS011;67776;52.012;4.736;2023-08-07T00:24:11;9.47;;;2.10;;
78489;SDS011;67776;52.012;4.736;2023-08-07T00:26:36;11.00;;;1.92;;
78489;SDS011;67776;52.012;4.736;2023-08-07T00:29:01;7.30;;;1.90;;
78489;SDS011;67776;52.012;4.736;2023-08-07T00:31:27;12.67;;;2.23;;
78489;SDS011;67776;52.012;4.736;2023-08-07T00:33:56;15.32;;;1.83;;
78489;SDS011;67776;52.012;4.736;2023-08-07T00:36:22;15.30;;;2.20;;
78489;SDS011;67776;52.012;4.736;2023-08-07T00:38:47;7.55;;;1.77;;
78489;SDS011;67776;52.012;4.736;2023-08-07T00:41:12;8.87;;;2.03;;
78489;SDS011;67776;52.012;4.736;2023-08-07T00:43:38;10.97;;;1.90;;
78489;SDS011;67776;52.012;4.736;2023-08-07T00:46:03;14.33;;;2.80;;
78489;SDS011;67776;52.012;4.736;2023-08-07T00:48:28;10.10;;;2.03;;
78489;SDS011;67776;52.012;4.736;2023-08-07T00:50:54;11.27;;;2.78;;
78489;SDS011;67776;52.012;4.736;2023-08-07T00:53:20;11.93;;;2.20;;
78489;SDS011;67776;52.012;4.736;2023-08-07T00:55:46;11.87;;;2.20;;
78489;SDS011;67776;52.012;4.736;2023-08-07T00:58:12;9.57;;;2.23;;
78489;SDS011;67776;52.012;4.736;2023-08-07T01:00:37;8.15;;;1.85;;
78489;SDS011;67776;52.012;4.736;2023-08-07T01:03:06;13.50;;;2.17;;
78489;SDS011;67776;52.012;4.736;2023-08-07T01:05:31;11.90;;;2.10;;
78489;SDS011;67776;52.012;4.736;2023-08-07T01:07:57;11.07;;;2.60;;
78489;SDS011;67776;52.012;4.736;2023-08-07T01:10:30;8.60;;;1.85;;
78489;SDS011;67776;52.012;4.736;2023-08-07T01:13:09;9.65;;;1.77;;
78489;SDS011;67776;52.012;4.736;2023-08-07T01:15:41;10.33;;;2.20;;
78489;SDS011;67776;52.012;4.736;2023-08-07T01:18:07;9.75;;;2.20;;
78489;SDS011;67776;52.012;4.736;2023-08-07T01:20:33;9.17;;;2.10;;
78489;SDS011;67776;52.012;4.736;2023-08-07T01:22:58;9.00;;;2.40;;
78489;SDS011;67776;52.012;4.736;2023-08-07T01:25:24;11.13;;;2.50;;
78489;SDS011;67776;52.012;4.736;2023-08-07T01:27:52;9.73;;;2.40;;
78489;SDS011;67776;52.012;4.736;2023-08-07T01:30:32;11.50;;;2.40;;
78489;SDS011;67776;52.012;4.736;2023-08-07T01:35:36;13.90;;;2.40;;
78489;SDS011;67776;52.012;4.736;2023-08-07T01:38:06;15.10;;;2.50;;
78489;SDS011;67776;52.012;4.736;2023-08-07T01:40:32;12.38;;;2.38;;
78489;SDS011;67776;52.012;4.736;2023-08-07T01:42:59;14.40;;;2.58;;
78489;SDS011;67776;52.012;4.736;2023-08-07T01:45:26;11.20;;;2.30;;
78489;SDS011;67776;52.012;4.736;2023-08-07T01:47:53;12.25;;;2.50;;
78489;SDS011;67776;52.012;4.736;2023-08-07T01:50:18;11.87;;;2.30;;
78489;SDS011;67776;52.012;4.736;2023-08-07T01:52:45;9.52;;;2.00;;
78489;SDS011;67776;52.012;4.736;2023-08-07T01:55:12;12.23;;;2.50;;
78489;SDS011;67776;52.012;4.736;2023-08-07T01:57:38;12.13;;;2.30;;
78489;SDS011;67776;52.012;4.736;2023-08-07T02:00:03;14.67;;;2.37;;
78489;SDS011;67776;52.012;4.736;2023-08-07T02:02:29;13.38;;;2.30;;
78489;SDS011;67776;52.012;4.736;2023-08-07T02:04:54;17.07;;;2.43;;
78489;SDS011;67776;52.012;4.736;2023-08-07T02:07:20;11.23;;;2.20;;
78489;SDS011;67776;52.012;4.736;2023-08-07T02:09:45;12.32;;;2.00;;
78489;SDS011;67776;52.012;4.736;2023-08-07T02:12:10;12.23;;;2.23;;
78489;SDS011;67776;52.012;4.736;2023-08-07T02:14:36;10.20;;;2.00;;
78489;SDS011;67776;52.012;4.736;2023-08-07T02:17:01;9.50;;;2.20;;
78489;SDS011;67776;52.012;4.736;2023-08-07T02:19:27;10.67;;;2.20;;
78489;SDS011;67776;52.012;4.736;2023-08-07T02:21:52;11.50;;;2.20;;
78489;SDS011;67776;52.012;4.736;2023-08-07T02:24:17;14.45;;;2.35;;
78489;SDS011;67776;52.012;4.736;2023-08-07T02:26:44;10.67;;;2.10;;
78489;SDS011;67776;52.012;4.736;2023-08-07T02:29:09;11.83;;;2.20;;
78489;SDS011;67776;52.012;4.736;2023-08-07T02:31:35;11.80;;;2.07;;
78489;SDS011;67776;52.012;4.736;2023-08-07T02:34:00;11.70;;;2.00;;
78489;SDS011;67776;52.012;4.736;2023-08-07T02:36:25;11.30;;;2.10;;
78489;SDS011;67776;52.012;4.736;2023-08-07T02:38:51;10.97;;;2.50;;
78489;SDS011;67776;52.012;4.736;2023-08-07T02:41:16;11.60;;;2.60;;
78489;SDS011;67776;52.012;4.736;2023-08-07T02:43:41;10.83;;;2.30;;
78489;SDS011;67776;52.012;4.736;2023-08-07T02:46:07;12.90;;;2.10;;
78489;SDS011;67776;52.012;4.736;2023-08-07T02:48:33;13.50;;;2.33;;
78489;SDS011;67776;52.012;4.736;2023-08-07T02:50:58;10.30;;;2.40;;
78489;SDS011;67776;52.012;4.736;2023-08-07T02:53:24;10.33;;;2.53;;
78489;SDS011;67776;52.012;4.736;2023-08-07T02:55:49;14.33;;;2.70;;
78489;SDS011;67776;52.012;4.736;2023-08-07T02:58:14;14.83;;;2.70;;
78489;SDS011;67776;52.012;4.736;2023-08-07T03:00:39;14.10;;;2.43;;
78489;SDS011;67776;52.012;4.736;2023-08-07T03:03:05;9.17;;;2.30;;
78489;SDS011;67776;52.012;4.736;2023-08-07T03:05:30;10.30;;;2.30;;
78489;SDS011;67776;52.012;4.736;2023-08-07T03:07:55;7.57;;;1.73;;
78489;SDS011;67776;52.012;4.736;2023-08-07T03:10:21;7.40;;;1.80;;
78489;SDS011;67776;52.012;4.736;2023-08-07T03:12:46;8.38;;;1.60;;
78489;SDS011;67776;52.012;4.736;2023-08-07T03:15:12;10.30;;;1.83;;
78489;SDS011;67776;52.012;4.736;2023-08-07T03:17:37;7.97;;;1.87;;
78489;SDS011;67776;52.012;4.736;2023-08-07T03:20:03;10.50;;;1.60;;
78489;SDS011;67776;52.012;4.736;2023-08-07T03:22:29;7.00;;;1.83;;
78489;SDS011;67776;52.012;4.736;2023-08-07T03:24:54;7.40;;;1.40;;
78489;SDS011;67776;52.012;4.736;2023-08-07T03:27:20;9.33;;;1.63;;
78489;SDS011;67776;52.012;4.736;2023-08-07T03:29:45;10.00;;;2.77;;
78489;SDS011;67776;52.012;4.736;2023-08-07T03:32:10;14.33;;;2.60;;
78489;SDS011;67776;52.012;4.736;2023-08-07T03:34:36;7.50;;;1.70;;
78489;SDS011;67776;52.012;4.736;2023-08-07T03:37:01;13.00;;;2.20;;
78489;SDS011;67776;52.012;4.736;2023-08-07T03:39:26;14.90;;;2.40;;
78489;SDS011;67776;52.012;4.736;2023-08-07T03:41:52;15.07;;;2.73;;
78489;SDS011;67776;52.012;4.736;2023-08-07T03:44:17;10.20;;;2.20;;
78489;SDS011;67776;52.012;4.736;2023-08-07T03:46:42;10.83;;;2.40;;
78489;SDS011;67776;52.012;4.736;2023-08-07T03:49:08;13.00;;;2.20;;
78489;SDS011;67776;52.012;4.736;2023-08-07T03:51:33;11.80;;;2.30;;
78489;SDS011;67776;52.012;4.736;2023-08-07T03:53:59;12.27;;;2.42;;
78489;SDS011;67776;52.012;4.736;2023-08-07T03:56:24;13.40;;;2.67;;
78489;SDS011;67776;52.012;4.736;2023-08-07T03:58:49;14.23;;;2.60;;
78489;SDS011;67776;52.012;4.736;2023-08-07T04:01:15;15.23;;;2.50;;
78489;SDS011;67776;52.012;4.736;2023-08-07T04:03:41;12.23;;;2.38;;
78489;SDS011;67776;52.012;4.736;2023-08-07T04:06:06;15.07;;;2.33;;
78489;SDS011;67776;52.012;4.736;2023-08-07T04:08:32;14.53;;;2.40;;
78489;SDS011;67776;52.012;4.736;2023-08-07T04:10:58;10.07;;;2.30;;
78489;SDS011;67776;52.012;4.736;2023-08-07T04:13:24;15.50;;;2.47;;
78489;SDS011;67776;52.012;4.736;2023-08-07T04:15:49;11.57;;;2.88;;
78489;SDS011;67776;52.012;4.736;2023-08-07T04:18:14;11.87;;;2.63;;
78489;SDS011;67776;52.012;4.736;2023-08-07T04:20:40;11.53;;;2.33;;
78489;SDS011;67776;52.012;4.736;2023-08-07T04:23:06;11.30;;;2.77;;
78489;SDS011;67776;52.012;4.736;2023-08-07T04:25:31;15.67;;;2.70;;
78489;SDS011;67776;52.012;4.736;2023-08-07T04:27:56;16.17;;;2.47;;
78489;SDS011;67776;52.012;4.736;2023-08-07T04:30:21;11.33;;;2.50;;
78489;SDS011;67776;52.012;4.736;2023-08-07T04:32:47;10.60;;;2.70;;
78489;SDS011;67776;52.012;4.736;2023-08-07T04:35:12;13.83;;;2.60;;
78489;SDS011;67776;52.012;4.736;2023-08-07T04:37:37;12.37;;;2.23;;
78489;SDS011;67776;52.012;4.736;2023-08-07T04:40:03;18.73;;;2.87;;
78489;SDS011;67776;52.012;4.736;2023-08-07T04:42:29;13.05;;;2.33;;
78489;SDS011;67776;52.012;4.736;2023-08-07T04:44:55;12.97;;;2.23;;
78489;SDS011;67776;52.012;4.736;2023-08-07T04:47:20;11.40;;;2.43;;
78489;SDS011;67776;52.012;4.736;2023-08-07T04:49:45;10.67;;;2.53;;
78489;SDS011;67776;52.012;4.736;2023-08-07T04:52:11;11.10;;;2.10;;
78489;SDS011;67776;52.012;4.736;2023-08-07T04:54:36;10.87;;;1.90;;
78489;SDS011;67776;52.012;4.736;2023-08-07T04:57:01;12.20;;;2.00;;
78489;SDS011;67776;52.012;4.736;2023-08-07T04:59:27;16.43;;;2.60;;
78489;SDS011;67776;52.012;4.736;2023-08-07T05:01:55;12.45;;;2.25;;
78489;SDS011;67776;52.012;4.736;2023-08-07T05:04:20;14.03;;;2.03;;
78489;SDS011;67776;52.012;4.736;2023-08-07T05:06:45;8.87;;;1.93;;
78489;SDS011;67776;52.012;4.736;2023-08-07T05:09:11;13.13;;;2.20;;
78489;SDS011;67776;52.012;4.736;2023-08-07T05:11:36;11.80;;;2.23;;
78489;SDS011;67776;52.012;4.736;2023-08-07T05:14:01;11.03;;;2.30;;
78489;SDS011;67776;52.012;4.736;2023-08-07T05:16:26;13.90;;;2.13;;
78489;SDS011;67776;52.012;4.736;2023-08-07T05:18:52;8.43;;;2.27;;
78489;SDS011;67776;52.012;4.736;2023-08-07T05:21:18;13.68;;;2.60;;
78489;SDS011;67776;52.012;4.736;2023-08-07T05:23:43;10.30;;;1.80;;
78489;SDS011;67776;52.012;4.736;2023-08-07T05:26:09;5.60;;;1.70;;
78489;SDS011;67776;52.012;4.736;2023-08-07T05:28:34;8.45;;;1.88;;
78489;SDS011;67776;52.012;4.736;2023-08-07T05:30:59;9.60;;;2.00;;
78489;SDS011;67776;52.012;4.736;2023-08-07T05:33:25;9.23;;;2.60;;
78489;SDS011;67776;52.012;4.736;2023-08-07T05:35:50;9.50;;;2.10;;
78489;SDS011;67776;52.012;4.736;2023-08-07T05:38:17;12.63;;;2.38;;
78489;SDS011;67776;52.012;4.736;2023-08-07T05:40:42;11.83;;;2.37;;
78489;SDS011;67776;52.012;4.736;2023-08-07T05:43:08;10.53;;;2.10;;
78489;SDS011;67776;52.012;4.736;2023-08-07T05:45:33;8.93;;;2.30;;
78489;SDS011;67776;52.012;4.736;2023-08-07T05:47:59;11.67;;;2.80;;
78489;SDS011;67776;52.012;4.736;2023-08-07T05:50:24;10.77;;;2.40;;
78489;SDS011;67776;52.012;4.736;2023-08-07T05:52:49;15.20;;;2.50;;
78489;SDS011;67776;52.012;4.736;2023-08-07T05:55:15;16.17;;;2.83;;
78489;SDS011;67776;52.012;4.736;2023-08-07T05:57:40;10.63;;;2.60;;
78489;SDS011;67776;52.012;4.736;2023-08-07T06:00:06;10.27;;;2.53;;
78489;SDS011;67776;52.012;4.736;2023-08-07T06:02:32;11.88;;;2.75;;
78489;SDS011;67776;52.012;4.736;2023-08-07T06:04:58;11.60;;;2.23;;
78489;SDS011;67776;52.012;4.736;2023-08-07T06:07:23;16.53;;;3.10;;
78489;SDS011;67776;52.012;4.736;2023-08-07T06:09:48;11.35;;;2.90;;
78489;SDS011;67776;52.012;4.736;2023-08-07T06:12:14;19.20;;;3.53;;
78489;SDS011;67776;52.012;4.736;2023-08-07T06:14:39;10.80;;;2.53;;
78489;SDS011;67776;52.012;4.736;2023-08-07T06:17:04;11.93;;;2.43;;
78489;SDS011;67776;52.012;4.736;2023-08-07T06:19:30;7.15;;;2.08;;
78489;SDS011;67776;52.012;4.736;2023-08-07T06:21:56;12.97;;;2.50;;
78489;SDS011;67776;52.012;4.736;2023-08-07T06:24:21;12.37;;;2.57;;
78489;SDS011;67776;52.012;4.736;2023-08-07T06:26:49;9.67;;;2.77;;
78489;SDS011;67776;52.012;4.736;2023-08-07T06:29:14;12.32;;;2.60;;
78489;SDS011;67776;52.012;4.736;2023-08-07T06:31:40;9.07;;;2.60;;
78489;SDS011;67776;52.012;4.736;2023-08-07T06:34:06;13.10;;;3.17;;
78489;SDS011;67776;52.012;4.736;2023-08-07T06:36:31;14.40;;;3.20;;
78489;SDS011;67776;52.012;4.736;2023-08-07T06:38:56;14.53;;;3.13;;
78489;SDS011;67776;52.012;4.736;2023-08-07T06:41:21;13.93;;;3.10;;
78489;SDS011;67776;52.012;4.736;2023-08-07T06:43:47;13.93;;;2.90;;
78489;SDS011;67776;52.012;4.736;2023-08-07T06:46:12;14.03;;;3.07;;
78489;SDS011;67776;52.012;4.736;2023-08-07T06:48:37;16.80;;;3.83;;
78489;SDS011;67776;52.012;4.736;2023-08-07T06:51:03;12.50;;;3.80;;
78489;SDS011;67776;52.012;4.736;2023-08-07T06:53:28;12.73;;;3.43;;
78489;SDS011;67776;52.012;4.736;2023-08-07T06:55:54;15.50;;;3.20;;
78489;SDS011;67776;52.012;4.736;2023-08-07T06:58:19;15.20;;;3.07;;
78489;SDS011;67776;52.012;4.736;2023-08-07T07:00:45;13.83;;;3.60;;
78489;SDS011;67776;52.012;4.736;2023-08-07T07:03:10;15.73;;;3.17;;
78489;SDS011;67776;52.012;4.736;2023-08-07T07:05:36;15.63;;;3.40;;
78489;SDS011;67776;52.012;4.736;2023-08-07T07:08:02;15.32;;;3.95;;
78489;SDS011;67776;52.012;4.736;2023-08-07T07:10:27;13.25;;;2.65;;
78489;SDS011;67776;52.012;4.736;2023-08-07T07:12:53;15.90;;;3.07;;
78489;SDS011;67776;52.012;4.736;2023-08-07T07:15:18;14.00;;;3.63;;
78489;SDS011;67776;52.012;4.736;2023-08-07T07:17:44;15.38;;;3.03;;
78489;SDS011;67776;52.012;4.736;2023-08-07T07:20:09;11.60;;;3.47;;
78489;SDS011;67776;52.012;4.736;2023-08-07T07:22:36;14.57;;;2.90;;
78489;SDS011;67776;52.012;4.736;2023-08-07T07:25:01;9.00;;;2.37;;
78489;SDS011;67776;52.012;4.736;2023-08-07T07:27:27;11.80;;;2.43;;
78489;SDS011;67776;52.012;4.736;2023-08-07T07:29:52;9.27;;;2.30;;
78489;SDS011;67776;52.012;4.736;2023-08-07T07:32:18;8.73;;;1.90;;
78489;SDS011;67776;52.012;4.736;2023-08-07T07:34:43;8.60;;;2.17;;
78489;SDS011;67776;52.012;4.736;2023-08-07T07:37:09;9.93;;;1.97;;
78489;SDS011;67776;52.012;4.736;2023-08-07T07:39:34;14.85;;;2.33;;
78489;SDS011;67776;52.012;4.736;2023-08-07T07:42:00;12.23;;;2.53;;
78489;SDS011;67776;52.012;4.736;2023-08-07T07:44:25;8.90;;;2.42;;
78489;SDS011;67776;52.012;4.736;2023-08-07T07:46:51;8.63;;;2.13;;
78489;SDS011;67776;52.012;4.736;2023-08-07T07:49:16;8.73;;;2.20;;
78489;SDS011;67776;52.012;4.736;2023-08-07T07:51:41;15.53;;;3.63;;
78489;SDS011;67776;52.012;4.736;2023-08-07T07:54:09;9.55;;;2.15;;
78489;SDS011;67776;52.012;4.736;2023-08-07T07:56:34;11.00;;;2.13;;
78489;SDS011;67776;52.012;4.736;2023-08-07T07:59:00;8.80;;;1.75;;
78489;SDS011;67776;52.012;4.736;2023-08-07T08:01:25;9.17;;;1.90;;
78489;SDS011;67776;52.012;4.736;2023-08-07T08:03:51;9.87;;;1.90;;
78489;SDS011;67776;52.012;4.736;2023-08-07T08:06:17;11.80;;;2.58;;
78489;SDS011;67776;52.012;4.736;2023-08-07T08:08:42;13.70;;;2.13;;
78489;SDS011;67776;52.012;4.736;2023-08-07T08:11:08;16.87;;;2.53;;
78489;SDS011;67776;52.012;4.736;2023-08-07T08:13:33;9.00;;;2.35;;
78489;SDS011;67776;52.012;4.736;2023-08-07T08:16:00;11.52;;;2.20;;
78489;SDS011;67776;52.012;4.736;2023-08-07T08:18:26;10.37;;;1.93;;
78489;SDS011;67776;52.012;4.736;2023-08-07T08:20:51;9.53;;;2.10;;
78489;SDS011;67776;52.012;4.736;2023-08-07T08:23:16;7.80;;;1.80;;
78489;SDS011;67776;52.012;4.736;2023-08-07T08:25:41;9.53;;;2.00;;
78489;SDS011;67776;52.012;4.736;2023-08-07T08:28:07;10.23;;;2.30;;
78489;SDS011;67776;52.012;4.736;2023-08-07T08:30:33;7.60;;;1.73;;
78489;SDS011;67776;52.012;4.736;2023-08-07T08:32:58;9.53;;;2.00;;
78489;SDS011;67776;52.012;4.736;2023-08-07T08:35:23;6.93;;;1.70;;
78489;SDS011;67776;52.012;4.736;2023-08-07T08:37:49;8.67;;;1.70;;
78489;SDS011;67776;52.012;4.736;2023-08-07T08:40:14;7.50;;;1.90;;
78489;SDS011;67776;52.012;4.736;2023-08-07T08:42:43;10.40;;;2.00;;
78489;SDS011;67776;52.012;4.736;2023-08-07T08:45:10;9.77;;;1.80;;
78489;SDS011;67776;52.012;4.736;2023-08-07T08:47:38;9.27;;;1.77;;
78489;SDS011;67776;52.012;4.736;2023-08-07T08:50:09;8.07;;;1.65;;
78489;SDS011;67776;52.012;4.736;2023-08-07T08:52:41;11.13;;;2.15;;
78489;SDS011;67776;52.012;4.736;2023-08-07T08:55:09;7.00;;;1.80;;
78489;SDS011;67776;52.012;4.736;2023-08-07T08:57:36;5.30;;;1.60;;
78489;SDS011;67776;52.012;4.736;2023-08-07T09:00:02;10.98;;;1.77;;
78489;SDS011;67776;52.012;4.736;2023-08-07T09:02:32;8.57;;;1.88;;
78489;SDS011;67776;52.012;4.736;2023-08-07T09:04:58;8.18;;;2.03;;
78489;SDS011;67776;52.012;4.736;2023-08-07T09:07:23;8.83;;;2.03;;
78489;SDS011;67776;52.012;4.736;2023-08-07T09:09:49;11.77;;;1.90;;
78489;SDS011;67776;52.012;4.736;2023-08-07T09:12:16;9.57;;;2.07;;
78489;SDS011;67776;52.012;4.736;2023-08-07T09:14:46;6.60;;;1.70;;
78489;SDS011;67776;52.012;4.736;2023-08-07T09:17:16;7.80;;;2.00;;
78489;SDS011;67776;52.012;4.736;2023-08-07T09:19:42;7.27;;;1.90;;
78489;SDS011;67776;52.012;4.736;2023-08-07T09:22:08;7.05;;;1.80;;
78489;SDS011;67776;52.012;4.736;2023-08-07T09:24:33;9.53;;;1.90;;
78489;SDS011;67776;52.012;4.736;2023-08-07T09:26:59;9.47;;;2.20;;
78489;SDS011;67776;52.012;4.736;2023-08-07T09:29:25;9.32;;;2.30;;
78489;SDS011;67776;52.012;4.736;2023-08-07T09:31:52;8.25;;;1.90;;
78489;SDS011;67776;52.012;4.736;2023-08-07T09:34:19;6.68;;;1.80;;
78489;SDS011;67776;52.012;4.736;2023-08-07T09:36:45;9.48;;;1.98;;
78489;SDS011;67776;52.012;4.736;2023-08-07T09:39:10;8.73;;;1.50;;
78489;SDS011;67776;52.012;4.736;2023-08-07T09:41:36;12.10;;;2.07;;
78489;SDS011;67776;52.012;4.736;2023-08-07T09:44:08;8.03;;;1.90;;
78489;SDS011;67776;52.012;4.736;2023-08-07T09:46:42;8.10;;;1.90;;
78489;SDS011;67776;52.012;4.736;2023-08-07T09:49:08;6.30;;;1.80;;
78489;SDS011;67776;52.012;4.736;2023-08-07T09:51:46;10.33;;;1.90;;
78489;SDS011;67776;52.012;4.736;2023-08-07T09:54:13;8.10;;;1.90;;
78489;SDS011;67776;52.012;4.736;2023-08-07T09:56:41;9.38;;;1.80;;
78489;SDS011;67776;52.012;4.736;2023-08-07T09:59:08;6.75;;;1.55;;
78489;SDS011;67776;52.012;4.736;2023-08-07T10:01:36;5.90;;;1.87;;
78489;SDS011;67776;52.012;4.736;2023-08-07T10:04:02;8.45;;;1.98;;
78489;SDS011;67776;52.012;4.736;2023-08-07T10:06:28;9.03;;;1.80;;
78489;SDS011;67776;52.012;4.736;2023-08-07T10:08:55;5.30;;;1.50;;
78489;SDS011;67776;52.012;4.736;2023-08-07T10:11:22;9.52;;;1.70;;
78489;SDS011;67776;52.012;4.736;2023-08-07T10:13:48;5.18;;;1.40;;
78489;SDS011;67776;52.012;4.736;2023-08-07T10:16:13;7.97;;;1.83;;
78489;SDS011;67776;52.012;4.736;2023-08-07T10:18:39;10.43;;;2.10;;
78489;SDS011;67776;52.012;4.736;2023-08-07T10:21:05;8.10;;;1.83;;
78489;SDS011;67776;52.012;4.736;2023-08-07T10:23:33;4.90;;;1.60;;
78489;SDS011;67776;52.012;4.736;2023-08-07T10:26:02;8.67;;;1.80;;
78489;SDS011;67776;52.012;4.736;2023-08-07T10:28:30;5.38;;;1.40;;
78489;SDS011;67776;52.012;4.736;2023-08-07T10:30:58;6.65;;;1.70;;
78489;SDS011;67776;52.012;4.736;2023-08-07T10:33:24;5.47;;;1.70;;
78489;SDS011;67776;52.012;4.736;2023-08-07T10:35:51;9.57;;;2.57;;
78489;SDS011;67776;52.012;4.736;2023-08-07T10:38:22;7.63;;;1.98;;
78489;SDS011;67776;52.012;4.736;2023-08-07T10:40:58;5.68;;;1.60;;
78489;SDS011;67776;52.012;4.736;2023-08-07T10:43:28;5.80;;;1.50;;
78489;SDS011;67776;52.012;4.736;2023-08-07T10:48:55;7.18;;;1.90;;
78489;SDS011;67776;52.012;4.736;2023-08-07T10:51:27;6.20;;;1.48;;
78489;SDS011;67776;52.012;4.736;2023-08-07T10:53:57;6.07;;;1.83;;
78489;SDS011;67776;52.012;4.736;2023-08-07T10:56:30;8.87;;;1.50;;
78489;SDS011;67776;52.012;4.736;2023-08-07T10:59:07;6.22;;;1.92;;
78489;SDS011;67776;52.012;4.736;2023-08-07T11:04:00;5.80;;;1.50;;
78489;SDS011;67776;52.012;4.736;2023-08-07T11:06:32;6.68;;;1.80;;
78489;SDS011;67776;52.012;4.736;2023-08-07T11:09:02;10.65;;;1.98;;
78489;SDS011;67776;52.012;4.736;2023-08-07T11:11:30;6.22;;;1.80;;
78489;SDS011;67776;52.012;4.736;2023-08-07T11:14:07;5.73;;;1.80;;
78489;SDS011;67776;52.012;4.736;2023-08-07T11:16:34;7.88;;;1.98;;
78489;SDS011;67776;52.012;4.736;2023-08-07T11:18:59;5.55;;;1.70;;
78489;SDS011;67776;52.012;4.736;2023-08-07T11:21:25;7.50;;;1.93;;
78489;SDS011;67776;52.012;4.736;2023-08-07T11:23:51;6.73;;;1.90;;
78489;SDS011;67776;52.012;4.736;2023-08-07T11:26:17;11.67;;;2.27;;
78489;SDS011;67776;52.012;4.736;2023-08-07T11:28:42;6.75;;;2.10;;
78489;SDS011;67776;52.012;4.736;2023-08-07T11:31:08;5.10;;;1.80;;
78489;SDS011;67776;52.012;4.736;2023-08-07T11:33:33;7.13;;;1.80;;
78489;SDS011;67776;52.012;4.736;2023-08-07T11:36:01;5.78;;;2.08;;
78489;SDS011;67776;52.012;4.736;2023-08-07T11:38:34;6.07;;;1.50;;
78489;SDS011;67776;52.012;4.736;2023-08-07T11:41:04;7.55;;;1.40;;
78489;SDS011;67776;52.012;4.736;2023-08-07T11:43:31;7.07;;;2.15;;
78489;SDS011;67776;52.012;4.736;2023-08-07T11:45:59;6.37;;;1.70;;
78489;SDS011;67776;52.012;4.736;2023-08-07T11:48:29;4.82;;;1.70;;
78489;SDS011;67776;52.012;4.736;2023-08-07T11:50:55;6.97;;;1.80;;
78489;SDS011;67776;52.012;4.736;2023-08-07T11:53:21;7.32;;;2.25;;
78489;SDS011;67776;52.012;4.736;2023-08-07T11:55:51;6.75;;;2.13;;
78489;SDS011;67776;52.012;4.736;2023-08-07T11:58:20;8.30;;;2.00;;
78489;SDS011;67776;52.012;4.736;2023-08-07T12:00:46;5.90;;;1.65;;
78489;SDS011;67776;52.012;4.736;2023-08-07T12:03:27;5.17;;;1.93;;
78489;SDS011;67776;52.012;4.736;2023-08-07T12:05:55;8.00;;;1.63;;
78489;SDS011;67776;52.012;4.736;2023-08-07T12:08:22;4.95;;;1.50;;
78489;SDS011;67776;52.012;4.736;2023-08-07T12:10:49;4.32;;;1.90;;
78489;SDS011;67776;52.012;4.736;2023-08-07T12:13:16;4.85;;;1.65;;
78489;SDS011;67776;52.012;4.736;2023-08-07T12:15:41;6.90;;;2.00;;
78489;SDS011;67776;52.012;4.736;2023-08-07T12:18:07;4.80;;;1.70;;
78489;SDS011;67776;52.012;4.736;2023-08-07T12:20:33;10.37;;;2.00;;
78489;SDS011;67776;52.012;4.736;2023-08-07T12:22:58;5.50;;;1.90;;
78489;SDS011;67776;52.012;4.736;2023-08-07T12:25:24;5.90;;;2.10;;
78489;SDS011;67776;52.012;4.736;2023-08-07T12:27:49;5.63;;;1.60;;
78489;SDS011;67776;52.012;4.736;2023-08-07T12:30:14;8.37;;;1.83;;
78489;SDS011;67776;52.012;4.736;2023-08-07T12:32:40;9.68;;;2.55;;
78489;SDS011;67776;52.012;4.736;2023-08-07T12:35:05;5.47;;;1.87;;
78489;SDS011;67776;52.012;4.736;2023-08-07T12:37:34;7.20;;;2.10;;
78489;SDS011;67776;52.012;4.736;2023-08-07T12:39:59;5.88;;;2.22;;
78489;SDS011;67776;52.012;4.736;2023-08-07T12:42:24;6.03;;;1.87;;
78489;SDS011;67776;52.012;4.736;2023-08-07T12:44:50;6.30;;;2.30;;
78489;SDS011;67776;52.012;4.736;2023-08-07T12:47:15;4.87;;;1.97;;
78489;SDS011;67776;52.012;4.736;2023-08-07T12:49:43;6.15;;;1.83;;
78489;SDS011;67776;52.012;4.736;2023-08-07T12:52:11;5.05;;;2.05;;
78489;SDS011;67776;52.012;4.736;2023-08-07T12:54:36;6.47;;;1.90;;
78489;SDS011;67776;52.012;4.736;2023-08-07T12:57:01;5.47;;;1.50;;
78489;SDS011;67776;52.012;4.736;2023-08-07T12:59:27;6.20;;;2.00;;
78489;SDS011;67776;52.012;4.736;2023-08-07T13:01:52;5.03;;;2.00;;
78489;SDS011;67776;52.012;4.736;2023-08-07T13:04:18;4.72;;;1.80;;
78489;SDS011;67776;52.012;4.736;2023-08-07T13:06:43;6.40;;;1.80;;
78489;SDS011;67776;52.012;4.736;2023-08-07T13:09:09;8.30;;;2.30;;
78489;SDS011;67776;52.012;4.736;2023-08-07T13:11:34;5.78;;;2.03;;
78489;SDS011;67776;52.012;4.736;2023-08-07T13:13:59;6.87;;;2.40;;
78489;SDS011;67776;52.012;4.736;2023-08-07T13:16:25;7.33;;;2.60;;
78489;SDS011;67776;52.012;4.736;2023-08-07T13:18:50;6.37;;;1.90;;
78489;SDS011;67776;52.012;4.736;2023-08-07T13:21:15;6.83;;;2.30;;
78489;SDS011;67776;52.012;4.736;2023-08-07T13:23:41;6.63;;;1.97;;
78489;SDS011;67776;52.012;4.736;2023-08-07T13:26:06;6.43;;;2.27;;
78489;SDS011;67776;52.012;4.736;2023-08-07T13:28:31;5.53;;;2.10;;
78489;SDS011;67776;52.012;4.736;2023-08-07T13:30:57;5.73;;;2.00;;
78489;SDS011;67776;52.012;4.736;2023-08-07T13:33:23;5.63;;;1.90;;
78489;SDS011;67776;52.012;4.736;2023-08-07T13:35:48;6.93;;;1.80;;
78489;SDS011;67776;52.012;4.736;2023-08-07T13:38:14;6.63;;;2.00;;
78489;SDS011;67776;52.012;4.736;2023-08-07T13:40:41;5.07;;;2.07;;
78489;SDS011;67776;52.012;4.736;2023-08-07T13:43:09;7.80;;;2.20;;
78489;SDS011;67776;52.012;4.736;2023-08-07T13:45:34;6.33;;;2.17;;
78489;SDS011;67776;52.012;4.736;2023-08-07T13:47:59;8.10;;;2.08;;
78489;SDS011;67776;52.012;4.736;2023-08-07T13:50:25;7.23;;;2.53;;
78489;SDS011;67776;52.012;4.736;2023-08-07T13:52:50;10.20;;;2.33;;
78489;SDS011;67776;52.012;4.736;2023-08-07T13:55:16;7.15;;;1.90;;
78489;SDS011;67776;52.012;4.736;2023-08-07T13:57:42;7.00;;;2.10;;
78489;SDS011;67776;52.012;4.736;2023-08-07T14:00:07;6.22;;;2.10;;
78489;SDS011;67776;52.012;4.736;2023-08-07T14:02:33;5.40;;;2.00;;
78489;SDS011;67776;52.012;4.736;2023-08-07T14:04:59;5.40;;;2.20;;
78489;SDS011;67776;52.012;4.736;2023-08-07T14:07:25;8.33;;;2.47;;
78489;SDS011;67776;52.012;4.736;2023-08-07T14:09:50;10.00;;;2.90;;
78489;SDS011;67776;52.012;4.736;2023-08-07T14:12:19;9.73;;;3.10;;
78489;SDS011;67776;52.012;4.736;2023-08-07T14:14:44;8.70;;;2.50;;
78489;SDS011;67776;52.012;4.736;2023-08-07T14:17:09;7.28;;;2.75;;
78489;SDS011;67776;52.012;4.736;2023-08-07T14:19:35;7.57;;;2.60;;
78489;SDS011;67776;52.012;4.736;2023-08-07T14:22:00;7.30;;;2.60;;
78489;SDS011;67776;52.012;4.736;2023-08-07T14:24:25;5.20;;;2.43;;
78489;SDS011;67776;52.012;4.736;2023-08-07T14:26:51;8.67;;;2.50;;
78489;SDS011;67776;52.012;4.736;2023-08-07T14:29:16;7.27;;;2.83;;
78489;SDS011;67776;52.012;4.736;2023-08-07T14:31:42;9.60;;;2.75;;
78489;SDS011;67776;52.012;4.736;2023-08-07T14:34:07;8.00;;;2.60;;
78489;SDS011;67776;52.012;4.736;2023-08-07T14:36:32;9.63;;;2.70;;
78489;SDS011;67776;52.012;4.736;2023-08-07T14:38:58;6.37;;;2.53;;
78489;SDS011;67776;52.012;4.736;2023-08-07T14:41:23;6.80;;;2.60;;
78489;SDS011;67776;52.012;4.736;2023-08-07T14:43:48;6.60;;;2.60;;